Latest Weather Observations for Dunalley

IDT60801

Issued at 7:31 am EDT Saturday 20 December 2014 (issued every 30 minutes, with the page automatically refreshed every 10 minutes)

About weather observations | Map of weather stations | Latest weather observations for TAS | Other Formats
Station Details ID: 094254 Name: DUNALLEY (STROUD POINT) Lat: -42.90 Lon: 147.79 Height: 12.43 m
Data from the previous 72 hours. | See also: Recent months at Dunalley
Date/Time
EDT
Temp
°C
App
Temp
°C
Dew
Point
Rel
Hum
%
Delta-T
°C
Wind Press
QNH
hPa
Press
MSL
hPa
Rain
since 9 am
mm
Dir
 
Spd
km/h
Gust
km/h
Spd
kts
Gust
kts
20/07:30am 16.7 14.0 9.1 61 3.9 NW 13 20 7 11 1010.4 1010.4 0.2
20/07:00am 14.6 11.7 8.3 66 3.2 NW 13 20 7 11 1010.2 1010.2 0.2
20/06:30am 14.4 11.8 7.9 65 3.2 NW 11 19 6 10 1010.1 1010.1 0.2
20/06:00am 13.8 12.0 7.8 67 3.0 NW 7 13 4 7 1010.0 1010.0 0.2
20/05:30am 13.3 11.3 7.3 67 2.9 NNW 7 11 4 6 1010.1 1010.1 0.2
20/05:00am 13.2 10.8 7.0 66 3.0 NW 9 17 5 9 1009.9 1009.9 0.2
20/04:30am 13.4 10.6 7.0 65 3.1 NNW 11 22 6 12 1010.0 1010.0 0.2
20/04:00am 13.7 11.3 7.0 64 3.3 NNW 9 13 5 7 1010.3 1010.3 0.2
20/03:30am 12.9 10.9 6.9 67 2.9 NNW 7 13 4 7 1010.5 1010.5 0.2
20/03:00am 13.0 10.9 6.8 66 3.0 NNW 7 15 4 8 1011.0 1011.0 0.2
20/02:30am 12.8 10.0 6.8 67 2.9 NW 11 15 6 8 1011.3 1011.3 0.2
20/02:00am 12.5 10.1 6.8 68 2.7 NW 9 11 5 6 1011.8 1011.8 0.2
20/01:30am 12.6 9.4 6.9 68 2.7 NW 13 20 7 11 1012.2 1012.2 0.0
20/01:00am 12.9 10.0 6.3 64 3.1 NW 11 15 6 8 1012.6 1012.6 0.0
20/12:30am 13.6 9.3 5.3 57 3.9 NW 17 22 9 12 1012.8 1012.8 0.0
20/12:00am 13.6 10.9 5.5 58 3.8 NW 9 17 5 9 1013.1 1013.1 0.0
 
Date/Time
EDT
Temp
°C
App
Temp
°C
Dew
Point
Rel
Hum
%
Delta-T
°C
Wind Press
QNH
hPa
Press
MSL
hPa
Rain
since 9 am
mm
Dir
 
Spd
km/h
Gust
km/h
Spd
kts
Gust
kts
19/11:30pm 13.8 11.1 5.7 58 3.8 NNW 9 17 5 9 1013.7 1013.7 0.0
19/11:00pm 13.5 10.7 7.1 65 3.1 NNW 11 15 6 8 1013.5 1013.5 0.0
19/10:30pm 13.8 11.5 7.3 65 3.2 N 9 13 5 7 1014.0 1014.0 0.0
19/10:00pm 13.7 11.0 7.5 66 3.0 N 11 15 6 8 1014.1 1014.1 0.0
19/09:30pm 13.7 11.2 8.1 69 2.8 N 11 15 6 8 1013.9 1013.9 0.0
19/09:00pm 13.8 10.9 8.2 69 2.8 NNE 13 17 7 9 1013.6 1013.6 0.0
19/08:30pm 14.0 11.2 8.6 70 2.7 NNE 13 19 7 10 1013.5 1013.5 0.0
19/08:00pm 14.4 10.9 8.8 69 2.8 NNE 17 22 9 12 1013.6 1013.6 0.0
19/07:30pm 14.5 10.5 8.2 66 3.2 NNE 19 24 10 13 1013.4 1013.4 0.0
19/07:00pm 14.8 11.1 8.1 64 3.4 NNE 17 22 9 12 1013.1 1013.1 0.0
19/06:30pm 15.6 13.8 7.1 57 4.2 S 6 9 3 5 1012.9 1012.9 0.0
19/06:00pm 15.9 13.5 7.1 56 4.3 SSE 9 13 5 7 1012.6 1012.6 0.0
19/05:30pm 16.4 14.4 7.1 54 4.6 SSE 7 11 4 6 1012.4 1012.4 0.0
19/05:00pm 16.4 14.7 6.0 50 5.0 SSE 4 7 2 4 1012.4 1012.4 0.0
19/04:30pm 16.2 13.8 6.9 54 4.6 SSE 9 15 5 8 1012.5 1012.5 0.0
19/04:00pm 16.1 13.2 6.3 52 4.8 S 11 17 6 9 1012.4 1012.4 0.0
19/03:30pm 16.5 13.1 6.1 50 5.1 SSE 13 19 7 10 1012.2 1012.2 0.0
19/03:00pm 17.3 14.5 7.1 51 5.1 WSW 11 15 6 8 1011.9 1011.9 0.0
19/02:30pm 16.8 12.5 7.2 53 4.8 SW 19 26 10 14 1012.0 1012.0 0.0
19/02:00pm 17.0 14.4 7.9 55 4.6 S 11 17 6 9 1012.1 1012.1 0.0
19/01:30pm 17.0 14.4 7.9 55 4.6 S 11 17 6 9 1012.1 1012.1 0.0
19/01:00pm 15.7 10.6 7.7 59 4.0 SSW 24 30 13 16 1012.3 1012.3 0.0
19/12:30pm 16.3 11.4 5.3 48 5.3 WSW 20 26 11 14 1012.0 1012.0 0.0
19/12:00pm 16.3 13.1 7.0 54 4.6 WSW 13 19 7 10 1011.9 1011.9 0.0
19/11:30am 15.9 11.7 5.8 51 4.9 SW 17 22 9 12 1012.0 1012.0 0.0
19/11:00am 15.8 11.7 6.3 53 4.6 WSW 17 22 9 12 1012.1 1012.1 0.0
19/10:30am 15.0 10.0 6.3 56 4.2 SW 22 30 12 16 1012.2 1012.2 0.0
19/10:00am 14.4 7.9 6.3 58 3.9 WSW 30 35 16 19 1012.3 1012.3 0.0
19/09:30am 14.2 7.2 5.8 57 4.0 WSW 32 39 17 21 1012.3 1012.3 0.0
19/09:00am 13.8 8.5 6.7 62 3.4 WSW 24 32 13 17 1012.2 1012.2 0.8
19/08:30am 12.9 7.3 5.6 61 3.4 WSW 24 32 13 17 1011.9 1011.9 0.8
19/08:00am 13.4 8.0 6.5 63 3.3 WSW 24 32 13 17 1011.5 1011.5 0.8
19/07:30am 12.5 6.3 6.1 65 3.0 WSW 28 35 15 19 1011.1 1011.1 0.8
19/07:00am 12.5 6.0 6.5 67 2.9 WSW 30 37 16 20 1010.6 1010.6 0.8
19/06:30am 12.0 5.9 6.5 69 2.6 WSW 28 35 15 19 1010.2 1010.2 0.8
19/06:00am 12.3 5.2 6.6 68 2.7 WSW 33 41 18 22 1009.6 1009.6 0.8
19/05:30am 12.0 5.5 6.5 69 2.6 WSW 30 37 16 20 1009.3 1009.3 0.8
19/05:00am 12.2 6.1 6.7 69 2.6 WSW 28 33 15 18 1008.8 1008.8 0.8
19/04:30am 12.4 6.4 7.1 70 2.6 WSW 28 35 15 19 1008.6 1008.6 0.8
19/04:00am 12.3 5.9 7.0 70 2.6 WSW 30 39 16 21 1008.1 1008.1 0.8
19/03:30am 12.7 6.5 7.8 72 2.4 WSW 30 35 16 19 1007.9 1007.9 0.8
19/03:00am 12.4 6.3 6.7 68 2.7 WSW 28 33 15 18 1007.9 1007.9 0.8
19/02:30am 12.9 6.6 7.6 70 2.6 WSW 30 35 16 19 1007.7 1007.7 0.8
19/02:00am 12.5 5.0 6.5 67 2.9 WSW 35 44 19 24 1007.2 1007.2 0.8
19/01:30am 12.8 5.0 6.6 66 3.0 WSW 37 43 20 23 1007.1 1007.1 0.8
19/01:00am 12.9 5.1 6.7 66 3.0 WSW 37 43 20 23 1006.8 1006.8 0.8
19/12:30am 13.1 6.2 7.1 67 2.9 WSW 33 37 18 20 1006.8 1006.8 0.8
19/12:00am 13.4 5.1 6.0 61 3.5 WSW 39 43 21 23 1006.4 1006.4 0.8
 
Date/Time
EDT
Temp
°C
App
Temp
°C
Dew
Point
Rel
Hum
%
Delta-T
°C
Wind Press
QNH
hPa
Press
MSL
hPa
Rain
since 9 am
mm
Dir
 
Spd
km/h
Gust
km/h
Spd
kts
Gust
kts
18/11:30pm 13.5 6.4 6.6 63 3.3 WSW 33 43 18 23 1006.3 1006.3 0.8
18/11:00pm 13.8 5.6 6.7 62 3.4 WSW 39 46 21 25 1006.0 1006.0 0.8
18/10:30pm 14.1 5.5 6.7 61 3.6 WSW 41 48 22 26 1005.7 1005.7 0.8
18/10:00pm 14.5 5.5 7.3 62 3.6 WSW 44 52 24 28 1005.2 1005.2 0.8
18/09:30pm 15.1 6.7 8.8 66 3.2 WSW 43 52 23 28 1004.7 1004.7 0.8
18/09:00pm 15.4 7.1 7.9 61 3.8 WSW 41 48 22 26 1003.9 1003.9 0.8
18/08:30pm 15.9 8.1 8.4 61 3.8 WSW 39 50 21 27 1003.2 1003.2 0.8
18/08:00pm 16.6 10.2 9.5 63 3.7 WSW 33 43 18 23 1002.7 1002.7 0.8
18/07:30pm 16.2 11.5 7.9 58 4.2 W 22 32 12 17 1002.0 1002.0 0.8
18/07:00pm 16.3 12.1 8.3 59 4.1 WNW 20 30 11 16 1001.6 1001.6 0.8
18/06:30pm 15.2 10.7 8.7 65 3.3 WNW 22 37 12 20 1001.2 1001.2 0.8
18/06:00pm 14.6 9.5 9.2 70 2.8 WNW 26 35 14 19 1000.9 1000.9 0.8
18/05:30pm 13.7 9.4 9.4 75 2.2 NW 22 41 12 22 1001.0 1001.0 0.8
18/05:00pm 14.3 11.3 10.7 79 1.9 NW 17 28 9 15 1001.1 1001.1 0.6
18/04:30pm 14.6 9.9 11.9 84 1.5 WNW 28 41 15 22 1001.1 1001.1 0.4
18/04:23pm 14.9 9.9 11.1 78 2.0 WNW 28 46 15 25 1000.9 1000.9 0.2
18/04:00pm 19.9 16.1 9.2 50 5.7 N 19 32 10 17 999.8 999.8 0.0
18/03:30pm 20.1 15.4 9.4 50 5.7 N 24 39 13 21 999.9 999.9 0.0
18/03:00pm 20.5 14.2 8.8 47 6.2 N 32 52 17 28 999.9 999.9 0.0
18/02:30pm 19.7 13.3 8.4 48 5.9 N 32 50 17 27 1000.1 1000.1 0.0
18/02:10pm 19.4 13.6 8.1 48 5.8 N 28 50 15 27 1000.3 1000.3 0.0
18/02:00pm 19.8 15.9 9.4 51 5.5 N 20 41 11 22 1000.5 1000.5 0.0
18/01:30pm 18.8 13.0 7.9 49 5.6 N 28 48 15 26 1000.8 1000.8 0.0
18/01:00pm 19.9 14.0 9.2 50 5.7 N 30 52 16 28 1000.8 1000.8 0.0
18/12:30pm 19.4 13.7 8.4 49 5.7 NNE 28 50 15 27 1001.3 1001.3 0.0
18/12:26pm 19.4 13.8 8.7 50 5.6 NNE 28 50 15 27 1001.2 1001.2 0.0
18/12:00pm 18.8 14.9 8.5 51 5.4 N 19 33 10 18 1001.8 1001.8 0.0
18/11:30am 18.3 13.6 9.1 55 4.8 N 24 46 13 25 1002.3 1002.3 0.0
18/11:21am 17.7 12.1 8.8 56 4.6 N 28 46 15 25 1002.1 1002.1 0.0
18/11:00am 19.4 13.9 9.0 51 5.5 N 28 39 15 21 1002.1 1002.1 0.0
18/10:30am 18.5 14.0 8.5 52 5.2 N 22 35 12 19 1002.6 1002.6 0.0
18/10:00am 19.5 15.8 9.4 52 5.4 NNE 19 28 10 15 1003.0 1003.0 0.0
18/09:30am 17.6 14.0 6.8 49 5.4 N 15 22 8 12 1003.3 1003.3 0.0
18/09:00am 16.2 12.4 5.8 50 5.0 NW 15 24 8 13 1003.6 1003.6 0.0
18/08:30am 14.9 12.6 4.9 51 4.7 NE 6 13 3 7 1003.9 1003.9 0.0
18/08:00am 14.7 12.2 5.0 52 4.6 NE 7 15 4 8 1004.0 1004.0 0.0
18/07:30am 13.2 10.6 6.1 62 3.4 NE 9 15 5 8 1003.9 1003.9 0.0
18/07:00am 12.8 10.4 7.0 68 2.8 NE 9 15 5 8 1003.9 1003.9 0.0
18/06:30am 12.5 11.4 6.8 68 2.7 NE 2 6 1 3 1003.8 1003.8 0.0
18/06:00am 11.7 9.8 6.8 72 2.3 NE 6 7 3 4 1003.9 1003.9 0.0
18/05:30am 11.5 9.5 7.2 75 2.1 NE 7 11 4 6 1003.7 1003.7 0.0
18/05:00am 10.3 7.7 5.9 74 2.0 NE 9 13 5 7 1003.7 1003.7 0.0
18/04:30am 11.2 7.7 5.3 67 2.7 NE 13 17 7 9 1003.7 1003.7 0.0
18/04:00am 11.7 8.1 5.1 64 3.0 NE 13 17 7 9 1003.7 1003.7 0.0
18/03:30am 12.1 8.9 5.3 63 3.1 NE 11 15 6 8 1003.7 1003.7 0.0
18/03:00am 12.4 8.9 5.3 62 3.3 NE 13 17 7 9 1003.7 1003.7 0.0
18/02:30am 12.0 8.9 5.4 64 3.1 NE 11 13 6 7 1003.8 1003.8 0.0
18/02:00am 11.9 9.5 5.1 63 3.1 NE 7 13 4 7 1004.1 1004.1 0.0
18/01:30am 12.5 9.9 6.1 65 3.0 NE 9 11 5 6 1004.3 1004.3 0.0
18/01:00am 12.4 9.7 7.5 72 2.4 NE 11 13 6 7 1004.7 1004.7 0.0
18/12:30am 13.0 10.5 8.1 72 2.4 NE 11 13 6 7 1004.9 1004.9 0.0
18/12:00am 14.0 12.0 10.2 78 2.0 NE 11 15 6 8 1005.2 1005.2 0.0
 
Date/Time
EDT
Temp
°C
App
Temp
°C
Dew
Point
Rel
Hum
%
Delta-T
°C
Wind Press
QNH
hPa
Press
MSL
hPa
Rain
since 9 am
mm
Dir
 
Spd
km/h
Gust
km/h
Spd
kts
Gust
kts
17/11:30pm 14.2 10.5 10.2 77 2.1 ENE 20 24 11 13 1005.3 1005.3 0.0
17/11:00pm 14.7 10.3 10.3 75 2.3 ENE 24 32 13 17 1005.6 1005.6 0.0
17/10:30pm 14.7 9.4 9.7 72 2.6 NE 28 33 15 18 1005.9 1005.9 0.0
17/10:00pm 14.6 8.9 9.8 73 2.5 ENE 30 35 16 19 1005.9 1005.9 0.0
17/09:30pm 14.6 8.8 9.4 71 2.7 ENE 30 37 16 20 1005.9 1005.9 0.0
17/09:00pm 14.6 9.6 9.4 71 2.7 ENE 26 33 14 18 1005.9 1005.9 0.0
17/08:30pm 14.6 9.4 9.0 69 2.9 ENE 26 35 14 19 1005.8 1005.8 0.0
17/08:00pm 14.7 8.8 8.9 68 3.0 ENE 30 37 16 20 1005.5 1005.5 0.0
17/07:30pm 14.8 8.0 9.2 69 2.9 ENE 35 43 19 23 1005.0 1005.0 0.0
17/07:00pm 14.9 8.3 8.6 66 3.2 ENE 33 43 18 23 1004.8 1004.8 0.0
17/06:30pm 15.3 9.3 8.5 64 3.4 ENE 30 41 16 22 1004.7 1004.7 0.0
17/06:23pm 15.7 9.8 8.9 64 3.5 NE 30 48 16 26 1004.6 1004.6 0.0
17/06:13pm 15.6 11.9 7.9 60 3.9 NNW 17 44 9 24 1004.4 1004.4 0.0
17/06:00pm 18.2 14.4 5.8 44 6.1 WSW 15 24 8 13 1004.1 1004.1 0.0
17/05:30pm 19.2 15.7 5.3 40 6.8 W 13 19 7 10 1004.0 1004.0 0.0
17/05:00pm 17.2 14.1 3.5 40 6.4 SSW 9 13 5 7 1004.1 1004.1 0.0
17/04:30pm 17.4 13.0 5.0 44 5.9 SW 17 22 9 12 1003.9 1003.9 0.0
17/04:00pm 18.4 13.2 2.7 35 7.3 W 19 26 10 14 1003.9 1003.9 0.0
17/03:30pm 18.9 14.1 5.4 41 6.6 WSW 20 33 11 18 1003.9 1003.9 0.0
17/03:00pm 16.8 11.3 5.7 48 5.4 WSW 24 33 13 18 1003.9 1003.9 0.0
17/02:30pm 16.5 12.4 6.3 51 5.0 SW 17 20 9 11 1003.9 1003.9 0.0
17/02:00pm 17.9 14.0 7.0 49 5.5 WSW 17 20 9 11 1003.8 1003.8 0.0
17/01:30pm 17.3 13.4 7.1 51 5.1 SW 17 20 9 11 1003.8 1003.8 0.0
17/01:00pm 17.1 12.0 6.0 48 5.4 WSW 22 26 12 14 1003.9 1003.9 0.0
17/12:30pm 16.9 10.0 6.4 50 5.2 W 32 43 17 23 1003.6 1003.6 0.0
17/12:00pm 16.1 11.1 6.3 52 4.8 WSW 22 32 12 17 1003.3 1003.3 0.0
17/11:30am 15.8 11.4 6.5 54 4.5 WSW 19 28 10 15 1003.0 1003.0 0.0
17/11:00am 15.9 9.2 5.5 50 5.0 W 30 41 16 22 1002.7 1002.7 0.0
17/10:30am 15.1 9.3 6.1 55 4.3 W 26 43 14 23 1002.5 1002.5 0.0
17/10:00am 13.8 8.0 4.4 53 4.3 WNW 24 39 13 21 1002.1 1002.1 0.0
17/09:30am 15.0 7.5 4.4 49 4.9 W 33 43 18 23 1001.6 1001.6 0.0
17/09:00am 14.4 6.7 5.2 54 4.3 W 35 46 19 25 1001.5 1001.5 6.2
17/08:30am 13.9 5.1 5.5 57 4.0 WSW 41 54 22 29 1000.9 1000.9 6.2
17/08:00am 13.3 3.9 5.2 58 3.8 W 44 54 24 29 1000.2 1000.2 6.2

Other Formats:

Comma delimited format used in spreadsheet applications
http://www.bom.gov.au/fwo/IDT60801/IDT60801.94951.axf

JavaScript Object Notation format (JSON) in row-major order
http://www.bom.gov.au/fwo/IDT60801/IDT60801.94951.json